sensor_id;sensor_type;location;lat;lon;timestamp;P1;durP1;ratioP1;P2;durP2;ratioP2
3415;SDS011;1721;51.238;9.562;2023-07-24T00:02:15;3.50;;;0.90;;
3415;SDS011;1721;51.238;9.562;2023-07-24T00:04:40;4.53;;;1.73;;
3415;SDS011;1721;51.238;9.562;2023-07-24T00:07:06;4.23;;;1.43;;
3415;SDS011;1721;51.238;9.562;2023-07-24T00:09:31;5.10;;;1.50;;
3415;SDS011;1721;51.238;9.562;2023-07-24T00:11:57;3.80;;;1.27;;
3415;SDS011;1721;51.238;9.562;2023-07-24T00:14:22;3.57;;;1.17;;
3415;SDS011;1721;51.238;9.562;2023-07-24T00:16:48;8.53;;;1.43;;
3415;SDS011;1721;51.238;9.562;2023-07-24T00:19:14;4.37;;;1.50;;
3415;SDS011;1721;51.238;9.562;2023-07-24T00:21:39;5.27;;;1.30;;
3415;SDS011;1721;51.238;9.562;2023-07-24T00:24:05;3.90;;;1.20;;
3415;SDS011;1721;51.238;9.562;2023-07-24T00:26:30;4.50;;;1.40;;
3415;SDS011;1721;51.238;9.562;2023-07-24T00:28:56;4.20;;;1.40;;
3415;SDS011;1721;51.238;9.562;2023-07-24T00:31:21;5.33;;;1.50;;
3415;SDS011;1721;51.238;9.562;2023-07-24T00:33:47;4.27;;;1.60;;
3415;SDS011;1721;51.238;9.562;2023-07-24T00:36:12;5.37;;;1.47;;
3415;SDS011;1721;51.238;9.562;2023-07-24T00:38:38;6.93;;;1.43;;
3415;SDS011;1721;51.238;9.562;2023-07-24T00:41:04;4.10;;;1.40;;
3415;SDS011;1721;51.238;9.562;2023-07-24T00:43:30;3.93;;;1.53;;
3415;SDS011;1721;51.238;9.562;2023-07-24T00:45:56;4.30;;;1.33;;
3415;SDS011;1721;51.238;9.562;2023-07-24T00:48:22;5.33;;;1.83;;
3415;SDS011;1721;51.238;9.562;2023-07-24T00:50:47;5.23;;;1.70;;
3415;SDS011;1721;51.238;9.562;2023-07-24T00:53:14;4.03;;;1.50;;
3415;SDS011;1721;51.238;9.562;2023-07-24T00:55:42;6.00;;;1.70;;
3415;SDS011;1721;51.238;9.562;2023-07-24T00:58:10;6.23;;;1.20;;
3415;SDS011;1721;51.238;9.562;2023-07-24T01:00:37;4.63;;;1.50;;
3415;SDS011;1721;51.238;9.562;2023-07-24T01:03:04;4.37;;;1.50;;
3415;SDS011;1721;51.238;9.562;2023-07-24T01:05:29;4.70;;;1.17;;
3415;SDS011;1721;51.238;9.562;2023-07-24T01:07:55;4.80;;;1.40;;
3415;SDS011;1721;51.238;9.562;2023-07-24T01:10:21;5.00;;;1.80;;
3415;SDS011;1721;51.238;9.562;2023-07-24T01:15:34;4.03;;;1.20;;
3415;SDS011;1721;51.238;9.562;2023-07-24T01:18:05;5.00;;;1.73;;
3415;SDS011;1721;51.238;9.562;2023-07-24T01:20:33;7.10;;;1.67;;
3415;SDS011;1721;51.238;9.562;2023-07-24T01:23:20;5.30;;;1.40;;
3415;SDS011;1721;51.238;9.562;2023-07-24T01:25:55;4.10;;;1.20;;
3415;SDS011;1721;51.238;9.562;2023-07-24T01:28:22;4.50;;;1.37;;
3415;SDS011;1721;51.238;9.562;2023-07-24T01:30:48;5.20;;;1.70;;
3415;SDS011;1721;51.238;9.562;2023-07-24T01:33:13;4.07;;;1.37;;
3415;SDS011;1721;51.238;9.562;2023-07-24T01:35:39;5.57;;;1.73;;
3415;SDS011;1721;51.238;9.562;2023-07-24T01:38:08;4.80;;;1.63;;
3415;SDS011;1721;51.238;9.562;2023-07-24T01:40:35;4.50;;;1.57;;
3415;SDS011;1721;51.238;9.562;2023-07-24T01:43:01;4.13;;;1.57;;
3415;SDS011;1721;51.238;9.562;2023-07-24T01:45:26;5.00;;;1.60;;
3415;SDS011;1721;51.238;9.562;2023-07-24T01:47:52;4.70;;;1.40;;
3415;SDS011;1721;51.238;9.562;2023-07-24T01:50:18;4.17;;;1.53;;
3415;SDS011;1721;51.238;9.562;2023-07-24T01:52:43;5.60;;;1.50;;
3415;SDS011;1721;51.238;9.562;2023-07-24T01:55:10;4.80;;;1.60;;
3415;SDS011;1721;51.238;9.562;2023-07-24T01:57:35;4.03;;;1.30;;
3415;SDS011;1721;51.238;9.562;2023-07-24T02:00:01;4.30;;;1.87;;
3415;SDS011;1721;51.238;9.562;2023-07-24T02:02:27;3.60;;;1.03;;
3415;SDS011;1721;51.238;9.562;2023-07-24T02:04:52;3.70;;;1.20;;
3415;SDS011;1721;51.238;9.562;2023-07-24T02:07:18;4.27;;;1.57;;
3415;SDS011;1721;51.238;9.562;2023-07-24T02:09:43;5.20;;;1.80;;
3415;SDS011;1721;51.238;9.562;2023-07-24T02:12:09;5.70;;;1.50;;
3415;SDS011;1721;51.238;9.562;2023-07-24T02:14:35;4.90;;;1.30;;
3415;SDS011;1721;51.238;9.562;2023-07-24T02:17:00;5.70;;;1.80;;
3415;SDS011;1721;51.238;9.562;2023-07-24T02:19:26;6.20;;;1.40;;
3415;SDS011;1721;51.238;9.562;2023-07-24T02:21:51;5.43;;;1.67;;
3415;SDS011;1721;51.238;9.562;2023-07-24T02:24:17;4.70;;;1.63;;
3415;SDS011;1721;51.238;9.562;2023-07-24T02:26:42;6.57;;;1.67;;
3415;SDS011;1721;51.238;9.562;2023-07-24T02:29:08;5.20;;;1.63;;
3415;SDS011;1721;51.238;9.562;2023-07-24T02:31:33;4.87;;;1.80;;
3415;SDS011;1721;51.238;9.562;2023-07-24T02:33:59;4.40;;;1.40;;
3415;SDS011;1721;51.238;9.562;2023-07-24T02:36:24;5.53;;;2.00;;
3415;SDS011;1721;51.238;9.562;2023-07-24T02:38:50;3.90;;;1.27;;
3415;SDS011;1721;51.238;9.562;2023-07-24T02:41:16;3.70;;;1.40;;
3415;SDS011;1721;51.238;9.562;2023-07-24T02:43:41;4.37;;;1.60;;
3415;SDS011;1721;51.238;9.562;2023-07-24T02:46:07;9.60;;;1.73;;
3415;SDS011;1721;51.238;9.562;2023-07-24T02:48:32;5.73;;;1.80;;
3415;SDS011;1721;51.238;9.562;2023-07-24T02:51:07;4.90;;;1.57;;
3415;SDS011;1721;51.238;9.562;2023-07-24T02:53:32;6.80;;;2.40;;
3415;SDS011;1721;51.238;9.562;2023-07-24T02:55:58;5.60;;;1.37;;
3415;SDS011;1721;51.238;9.562;2023-07-24T02:58:23;7.67;;;1.93;;
3415;SDS011;1721;51.238;9.562;2023-07-24T03:00:49;9.10;;;1.87;;
3415;SDS011;1721;51.238;9.562;2023-07-24T03:03:14;6.03;;;1.47;;
3415;SDS011;1721;51.238;9.562;2023-07-24T03:05:39;5.47;;;1.40;;
3415;SDS011;1721;51.238;9.562;2023-07-24T03:08:05;4.40;;;1.50;;
3415;SDS011;1721;51.238;9.562;2023-07-24T03:10:31;5.70;;;1.50;;
3415;SDS011;1721;51.238;9.562;2023-07-24T03:12:56;4.33;;;1.37;;
3415;SDS011;1721;51.238;9.562;2023-07-24T03:15:22;5.63;;;1.90;;
3415;SDS011;1721;51.238;9.562;2023-07-24T03:17:47;5.43;;;1.97;;
3415;SDS011;1721;51.238;9.562;2023-07-24T03:20:14;4.80;;;1.80;;
3415;SDS011;1721;51.238;9.562;2023-07-24T03:22:42;5.83;;;1.70;;
3415;SDS011;1721;51.238;9.562;2023-07-24T03:25:08;5.70;;;1.63;;
3415;SDS011;1721;51.238;9.562;2023-07-24T03:27:34;4.23;;;1.70;;
3415;SDS011;1721;51.238;9.562;2023-07-24T03:29:59;5.10;;;2.23;;
3415;SDS011;1721;51.238;9.562;2023-07-24T03:32:25;12.80;;;1.83;;
3415;SDS011;1721;51.238;9.562;2023-07-24T03:34:51;11.07;;;1.97;;
3415;SDS011;1721;51.238;9.562;2023-07-24T03:37:16;5.73;;;1.77;;
3415;SDS011;1721;51.238;9.562;2023-07-24T03:39:42;4.90;;;1.77;;
3415;SDS011;1721;51.238;9.562;2023-07-24T03:42:09;5.17;;;1.70;;
3415;SDS011;1721;51.238;9.562;2023-07-24T03:44:37;4.10;;;1.43;;
3415;SDS011;1721;51.238;9.562;2023-07-24T03:47:06;6.30;;;2.00;;
3415;SDS011;1721;51.238;9.562;2023-07-24T03:49:32;5.77;;;1.73;;
3415;SDS011;1721;51.238;9.562;2023-07-24T03:51:58;7.10;;;1.90;;
3415;SDS011;1721;51.238;9.562;2023-07-24T03:54:23;5.03;;;1.83;;
3415;SDS011;1721;51.238;9.562;2023-07-24T03:56:49;5.33;;;1.70;;
3415;SDS011;1721;51.238;9.562;2023-07-24T03:59:15;5.27;;;1.80;;
3415;SDS011;1721;51.238;9.562;2023-07-24T04:01:40;5.17;;;1.70;;
3415;SDS011;1721;51.238;9.562;2023-07-24T04:04:06;3.77;;;1.47;;
3415;SDS011;1721;51.238;9.562;2023-07-24T04:06:31;4.10;;;1.50;;
3415;SDS011;1721;51.238;9.562;2023-07-24T04:08:57;4.67;;;1.57;;
3415;SDS011;1721;51.238;9.562;2023-07-24T04:11:22;6.33;;;1.90;;
3415;SDS011;1721;51.238;9.562;2023-07-24T04:13:48;5.63;;;1.87;;
3415;SDS011;1721;51.238;9.562;2023-07-24T04:16:13;5.60;;;1.90;;
3415;SDS011;1721;51.238;9.562;2023-07-24T04:18:39;5.90;;;1.67;;
3415;SDS011;1721;51.238;9.562;2023-07-24T04:21:04;7.83;;;2.07;;
3415;SDS011;1721;51.238;9.562;2023-07-24T04:23:30;5.10;;;1.70;;
3415;SDS011;1721;51.238;9.562;2023-07-24T04:25:55;4.37;;;1.47;;
3415;SDS011;1721;51.238;9.562;2023-07-24T04:28:21;5.57;;;1.90;;
3415;SDS011;1721;51.238;9.562;2023-07-24T04:30:46;5.73;;;1.87;;
3415;SDS011;1721;51.238;9.562;2023-07-24T04:33:12;6.47;;;2.00;;
3415;SDS011;1721;51.238;9.562;2023-07-24T04:35:38;4.33;;;1.47;;
3415;SDS011;1721;51.238;9.562;2023-07-24T04:38:03;5.10;;;1.70;;
3415;SDS011;1721;51.238;9.562;2023-07-24T04:40:29;5.53;;;1.70;;
3415;SDS011;1721;51.238;9.562;2023-07-24T04:42:54;4.37;;;1.47;;
3415;SDS011;1721;51.238;9.562;2023-07-24T04:45:20;4.33;;;1.20;;
3415;SDS011;1721;51.238;9.562;2023-07-24T04:47:45;5.17;;;2.03;;
3415;SDS011;1721;51.238;9.562;2023-07-24T04:50:12;4.00;;;1.53;;
3415;SDS011;1721;51.238;9.562;2023-07-24T04:52:38;5.33;;;1.63;;
3415;SDS011;1721;51.238;9.562;2023-07-24T04:55:03;4.60;;;1.70;;
3415;SDS011;1721;51.238;9.562;2023-07-24T04:57:29;5.40;;;2.20;;
3415;SDS011;1721;51.238;9.562;2023-07-24T04:59:55;5.20;;;1.53;;
3415;SDS011;1721;51.238;9.562;2023-07-24T05:02:20;4.37;;;1.60;;
3415;SDS011;1721;51.238;9.562;2023-07-24T05:04:46;6.33;;;1.80;;
3415;SDS011;1721;51.238;9.562;2023-07-24T05:07:11;4.60;;;1.50;;
3415;SDS011;1721;51.238;9.562;2023-07-24T05:09:37;6.97;;;1.93;;
3415;SDS011;1721;51.238;9.562;2023-07-24T05:12:03;5.80;;;1.87;;
3415;SDS011;1721;51.238;9.562;2023-07-24T05:14:28;5.03;;;1.53;;
3415;SDS011;1721;51.238;9.562;2023-07-24T05:16:54;4.57;;;1.60;;
3415;SDS011;1721;51.238;9.562;2023-07-24T05:19:19;4.63;;;1.40;;
3415;SDS011;1721;51.238;9.562;2023-07-24T05:21:45;3.90;;;1.30;;
3415;SDS011;1721;51.238;9.562;2023-07-24T05:24:11;4.50;;;1.60;;
3415;SDS011;1721;51.238;9.562;2023-07-24T05:26:36;4.97;;;1.63;;
3415;SDS011;1721;51.238;9.562;2023-07-24T05:29:01;6.43;;;1.87;;
3415;SDS011;1721;51.238;9.562;2023-07-24T05:31:27;4.27;;;1.60;;
3415;SDS011;1721;51.238;9.562;2023-07-24T05:33:53;4.73;;;1.70;;
3415;SDS011;1721;51.238;9.562;2023-07-24T05:36:18;4.87;;;1.90;;
3415;SDS011;1721;51.238;9.562;2023-07-24T05:38:44;4.57;;;1.60;;
3415;SDS011;1721;51.238;9.562;2023-07-24T05:41:09;5.30;;;1.90;;
3415;SDS011;1721;51.238;9.562;2023-07-24T05:43:35;5.27;;;2.10;;
3415;SDS011;1721;51.238;9.562;2023-07-24T05:46:00;5.50;;;1.87;;
3415;SDS011;1721;51.238;9.562;2023-07-24T05:48:26;4.43;;;1.53;;
3415;SDS011;1721;51.238;9.562;2023-07-24T05:50:51;4.87;;;1.93;;
3415;SDS011;1721;51.238;9.562;2023-07-24T05:53:17;7.23;;;1.80;;
3415;SDS011;1721;51.238;9.562;2023-07-24T05:55:43;5.60;;;1.70;;
3415;SDS011;1721;51.238;9.562;2023-07-24T05:58:08;7.23;;;1.90;;
3415;SDS011;1721;51.238;9.562;2023-07-24T06:00:34;6.27;;;1.90;;
3415;SDS011;1721;51.238;9.562;2023-07-24T06:03:01;6.67;;;1.93;;
3415;SDS011;1721;51.238;9.562;2023-07-24T06:05:27;8.07;;;2.00;;
3415;SDS011;1721;51.238;9.562;2023-07-24T06:07:53;5.63;;;2.23;;
3415;SDS011;1721;51.238;9.562;2023-07-24T06:10:18;5.93;;;2.20;;
3415;SDS011;1721;51.238;9.562;2023-07-24T06:12:44;6.33;;;1.80;;
3415;SDS011;1721;51.238;9.562;2023-07-24T06:15:09;6.20;;;1.93;;
3415;SDS011;1721;51.238;9.562;2023-07-24T06:17:35;7.13;;;1.90;;
3415;SDS011;1721;51.238;9.562;2023-07-24T06:20:01;5.50;;;1.77;;
3415;SDS011;1721;51.238;9.562;2023-07-24T06:22:26;9.20;;;2.40;;
3415;SDS011;1721;51.238;9.562;2023-07-24T06:24:52;7.07;;;2.40;;
3415;SDS011;1721;51.238;9.562;2023-07-24T06:27:17;4.83;;;2.23;;
3415;SDS011;1721;51.238;9.562;2023-07-24T06:29:43;6.57;;;1.90;;
3415;SDS011;1721;51.238;9.562;2023-07-24T06:32:09;6.10;;;2.10;;
3415;SDS011;1721;51.238;9.562;2023-07-24T06:34:34;7.10;;;2.03;;
3415;SDS011;1721;51.238;9.562;2023-07-24T06:37:00;10.10;;;2.37;;
3415;SDS011;1721;51.238;9.562;2023-07-24T06:39:26;7.07;;;2.23;;
3415;SDS011;1721;51.238;9.562;2023-07-24T06:41:53;5.80;;;2.00;;
3415;SDS011;1721;51.238;9.562;2023-07-24T06:44:20;6.93;;;2.03;;
3415;SDS011;1721;51.238;9.562;2023-07-24T06:46:45;9.53;;;2.17;;
3415;SDS011;1721;51.238;9.562;2023-07-24T06:49:11;6.97;;;2.20;;
3415;SDS011;1721;51.238;9.562;2023-07-24T06:51:36;13.13;;;2.60;;
3415;SDS011;1721;51.238;9.562;2023-07-24T06:54:03;5.73;;;2.30;;
3415;SDS011;1721;51.238;9.562;2023-07-24T06:56:29;8.90;;;2.90;;
3415;SDS011;1721;51.238;9.562;2023-07-24T06:58:55;5.17;;;1.93;;
3415;SDS011;1721;51.238;9.562;2023-07-24T07:01:20;5.10;;;1.80;;
3415;SDS011;1721;51.238;9.562;2023-07-24T07:03:46;7.63;;;1.93;;
3415;SDS011;1721;51.238;9.562;2023-07-24T07:06:11;6.03;;;1.97;;
3415;SDS011;1721;51.238;9.562;2023-07-24T07:08:37;6.23;;;2.13;;
3415;SDS011;1721;51.238;9.562;2023-07-24T07:11:03;5.33;;;1.90;;
3415;SDS011;1721;51.238;9.562;2023-07-24T07:13:28;6.27;;;2.30;;
3415;SDS011;1721;51.238;9.562;2023-07-24T07:15:54;7.70;;;2.40;;
3415;SDS011;1721;51.238;9.562;2023-07-24T07:18:20;6.70;;;2.60;;
3415;SDS011;1721;51.238;9.562;2023-07-24T07:20:46;5.87;;;2.43;;
3415;SDS011;1721;51.238;9.562;2023-07-24T07:23:15;6.80;;;2.43;;
3415;SDS011;1721;51.238;9.562;2023-07-24T07:25:41;10.87;;;2.40;;
3415;SDS011;1721;51.238;9.562;2023-07-24T07:28:13;5.57;;;2.10;;
3415;SDS011;1721;51.238;9.562;2023-07-24T07:30:40;7.57;;;2.50;;
3415;SDS011;1721;51.238;9.562;2023-07-24T07:33:06;5.50;;;2.40;;
3415;SDS011;1721;51.238;9.562;2023-07-24T07:35:32;6.37;;;2.20;;
3415;SDS011;1721;51.238;9.562;2023-07-24T07:37:58;10.13;;;2.83;;
3415;SDS011;1721;51.238;9.562;2023-07-24T07:40:24;6.20;;;2.63;;
3415;SDS011;1721;51.238;9.562;2023-07-24T07:42:51;7.00;;;2.50;;
3415;SDS011;1721;51.238;9.562;2023-07-24T07:45:18;7.23;;;2.73;;
3415;SDS011;1721;51.238;9.562;2023-07-24T07:47:43;6.30;;;2.50;;
3415;SDS011;1721;51.238;9.562;2023-07-24T07:50:09;14.33;;;2.83;;
3415;SDS011;1721;51.238;9.562;2023-07-24T07:52:35;5.90;;;1.93;;
3415;SDS011;1721;51.238;9.562;2023-07-24T07:55:00;6.00;;;2.50;;
3415;SDS011;1721;51.238;9.562;2023-07-24T07:57:26;6.47;;;2.57;;
3415;SDS011;1721;51.238;9.562;2023-07-24T07:59:51;7.93;;;2.87;;
3415;SDS011;1721;51.238;9.562;2023-07-24T08:02:17;8.63;;;2.70;;
3415;SDS011;1721;51.238;9.562;2023-07-24T08:04:42;10.30;;;3.20;;
3415;SDS011;1721;51.238;9.562;2023-07-24T08:07:08;6.83;;;2.47;;
3415;SDS011;1721;51.238;9.562;2023-07-24T08:09:34;6.87;;;2.73;;
3415;SDS011;1721;51.238;9.562;2023-07-24T08:12:01;10.80;;;3.03;;
3415;SDS011;1721;51.238;9.562;2023-07-24T08:14:26;9.93;;;3.20;;
3415;SDS011;1721;51.238;9.562;2023-07-24T08:16:52;10.90;;;2.17;;
3415;SDS011;1721;51.238;9.562;2023-07-24T08:19:18;8.77;;;2.80;;
3415;SDS011;1721;51.238;9.562;2023-07-24T08:21:43;8.20;;;2.50;;
3415;SDS011;1721;51.238;9.562;2023-07-24T08:24:09;7.50;;;3.17;;
3415;SDS011;1721;51.238;9.562;2023-07-24T08:26:35;12.33;;;3.60;;
3415;SDS011;1721;51.238;9.562;2023-07-24T08:29:00;8.10;;;3.20;;
3415;SDS011;1721;51.238;9.562;2023-07-24T08:31:26;9.43;;;2.63;;
3415;SDS011;1721;51.238;9.562;2023-07-24T08:33:51;7.47;;;2.80;;
3415;SDS011;1721;51.238;9.562;2023-07-24T08:36:18;7.30;;;2.73;;
3415;SDS011;1721;51.238;9.562;2023-07-24T08:38:43;8.30;;;3.10;;
3415;SDS011;1721;51.238;9.562;2023-07-24T08:41:12;7.10;;;2.70;;
3415;SDS011;1721;51.238;9.562;2023-07-24T08:43:40;7.67;;;2.63;;
3415;SDS011;1721;51.238;9.562;2023-07-24T08:46:07;8.10;;;3.10;;
3415;SDS011;1721;51.238;9.562;2023-07-24T08:48:34;7.37;;;2.47;;
3415;SDS011;1721;51.238;9.562;2023-07-24T08:51:03;7.50;;;2.93;;
3415;SDS011;1721;51.238;9.562;2023-07-24T08:53:33;8.27;;;2.70;;
3415;SDS011;1721;51.238;9.562;2023-07-24T08:56:01;6.87;;;2.40;;
3415;SDS011;1721;51.238;9.562;2023-07-24T08:58:34;8.77;;;3.40;;
3415;SDS011;1721;51.238;9.562;2023-07-24T09:01:01;7.17;;;2.60;;
3415;SDS011;1721;51.238;9.562;2023-07-24T09:03:28;7.10;;;2.67;;
3415;SDS011;1721;51.238;9.562;2023-07-24T09:05:55;6.73;;;2.50;;
3415;SDS011;1721;51.238;9.562;2023-07-24T09:08:34;7.53;;;2.70;;
3415;SDS011;1721;51.238;9.562;2023-07-24T09:11:00;6.93;;;3.13;;
3415;SDS011;1721;51.238;9.562;2023-07-24T09:13:27;6.60;;;2.70;;
3415;SDS011;1721;51.238;9.562;2023-07-24T09:15:53;8.70;;;3.27;;
3415;SDS011;1721;51.238;9.562;2023-07-24T09:18:19;9.80;;;3.13;;
3415;SDS011;1721;51.238;9.562;2023-07-24T09:20:45;6.77;;;2.50;;
3415;SDS011;1721;51.238;9.562;2023-07-24T09:23:12;9.63;;;3.17;;
3415;SDS011;1721;51.238;9.562;2023-07-24T09:25:39;9.37;;;3.27;;
3415;SDS011;1721;51.238;9.562;2023-07-24T09:28:14;10.60;;;3.20;;
3415;SDS011;1721;51.238;9.562;2023-07-24T09:30:41;7.30;;;3.00;;
3415;SDS011;1721;51.238;9.562;2023-07-24T09:33:15;7.60;;;2.80;;
3415;SDS011;1721;51.238;9.562;2023-07-24T09:35:41;8.33;;;3.23;;
3415;SDS011;1721;51.238;9.562;2023-07-24T09:38:07;7.00;;;2.93;;
3415;SDS011;1721;51.238;9.562;2023-07-24T09:40:37;10.00;;;3.00;;
3415;SDS011;1721;51.238;9.562;2023-07-24T09:45:48;9.10;;;3.47;;
3415;SDS011;1721;51.238;9.562;2023-07-24T09:48:15;10.23;;;2.63;;
3415;SDS011;1721;51.238;9.562;2023-07-24T09:50:43;9.47;;;2.93;;
3415;SDS011;1721;51.238;9.562;2023-07-24T09:53:32;9.30;;;3.10;;
3415;SDS011;1721;51.238;9.562;2023-07-24T09:56:13;11.30;;;3.27;;
3415;SDS011;1721;51.238;9.562;2023-07-24T09:58:42;8.63;;;2.87;;
3415;SDS011;1721;51.238;9.562;2023-07-24T10:01:09;12.60;;;3.27;;
3415;SDS011;1721;51.238;9.562;2023-07-24T10:03:37;9.37;;;3.50;;
3415;SDS011;1721;51.238;9.562;2023-07-24T10:06:05;10.10;;;3.77;;
3415;SDS011;1721;51.238;9.562;2023-07-24T10:08:31;12.60;;;3.33;;
3415;SDS011;1721;51.238;9.562;2023-07-24T10:10:59;8.63;;;3.20;;
3415;SDS011;1721;51.238;9.562;2023-07-24T10:13:25;7.87;;;3.10;;
3415;SDS011;1721;51.238;9.562;2023-07-24T10:15:52;7.60;;;3.03;;
3415;SDS011;1721;51.238;9.562;2023-07-24T10:18:17;8.70;;;2.40;;
3415;SDS011;1721;51.238;9.562;2023-07-24T10:21:01;7.70;;;2.73;;
3415;SDS011;1721;51.238;9.562;2023-07-24T10:23:28;8.30;;;3.33;;
3415;SDS011;1721;51.238;9.562;2023-07-24T10:25:54;7.40;;;2.63;;
3415;SDS011;1721;51.238;9.562;2023-07-24T10:28:29;9.30;;;2.87;;
3415;SDS011;1721;51.238;9.562;2023-07-24T10:31:00;7.47;;;2.73;;
3415;SDS011;1721;51.238;9.562;2023-07-24T10:33:29;12.87;;;2.90;;
3415;SDS011;1721;51.238;9.562;2023-07-24T10:36:03;9.10;;;3.20;;
3415;SDS011;1721;51.238;9.562;2023-07-24T10:38:36;11.20;;;3.60;;
3415;SDS011;1721;51.238;9.562;2023-07-24T10:41:03;8.27;;;3.40;;
3415;SDS011;1721;51.238;9.562;2023-07-24T10:43:39;6.40;;;2.57;;
3415;SDS011;1721;51.238;9.562;2023-07-24T10:46:06;9.10;;;2.97;;
3415;SDS011;1721;51.238;9.562;2023-07-24T10:48:32;9.47;;;3.07;;
3415;SDS011;1721;51.238;9.562;2023-07-24T10:50:57;8.50;;;2.70;;
3415;SDS011;1721;51.238;9.562;2023-07-24T10:53:23;7.40;;;2.90;;
3415;SDS011;1721;51.238;9.562;2023-07-24T10:55:50;7.20;;;2.60;;
3415;SDS011;1721;51.238;9.562;2023-07-24T10:58:16;7.60;;;2.80;;
3415;SDS011;1721;51.238;9.562;2023-07-24T11:00:42;6.60;;;2.53;;
3415;SDS011;1721;51.238;9.562;2023-07-24T11:03:12;8.73;;;3.37;;
3415;SDS011;1721;51.238;9.562;2023-07-24T11:05:39;7.53;;;2.53;;
3415;SDS011;1721;51.238;9.562;2023-07-24T11:08:13;7.30;;;2.57;;
3415;SDS011;1721;51.238;9.562;2023-07-24T11:10:44;7.27;;;2.70;;
3415;SDS011;1721;51.238;9.562;2023-07-24T11:13:14;8.30;;;3.13;;
3415;SDS011;1721;51.238;9.562;2023-07-24T11:15:41;7.73;;;3.00;;
3415;SDS011;1721;51.238;9.562;2023-07-24T11:18:06;6.23;;;2.60;;
3415;SDS011;1721;51.238;9.562;2023-07-24T11:20:33;8.33;;;3.10;;
3415;SDS011;1721;51.238;9.562;2023-07-24T11:23:09;8.37;;;3.00;;
3415;SDS011;1721;51.238;9.562;2023-07-24T11:25:35;8.20;;;3.30;;
3415;SDS011;1721;51.238;9.562;2023-07-24T11:28:01;7.27;;;3.03;;
3415;SDS011;1721;51.238;9.562;2023-07-24T11:30:29;7.70;;;2.87;;
3415;SDS011;1721;51.238;9.562;2023-07-24T11:32:54;9.17;;;3.40;;
3415;SDS011;1721;51.238;9.562;2023-07-24T11:35:24;7.80;;;2.60;;
3415;SDS011;1721;51.238;9.562;2023-07-24T11:37:50;10.50;;;3.50;;
3415;SDS011;1721;51.238;9.562;2023-07-24T11:40:16;11.37;;;3.43;;
3415;SDS011;1721;51.238;9.562;2023-07-24T11:42:44;9.33;;;3.10;;
3415;SDS011;1721;51.238;9.562;2023-07-24T11:45:11;9.93;;;3.63;;
3415;SDS011;1721;51.238;9.562;2023-07-24T11:47:43;7.03;;;2.73;;
3415;SDS011;1721;51.238;9.562;2023-07-24T11:50:13;9.30;;;3.60;;
3415;SDS011;1721;51.238;9.562;2023-07-24T11:52:40;7.83;;;3.07;;
3415;SDS011;1721;51.238;9.562;2023-07-24T11:55:14;10.10;;;3.60;;
3415;SDS011;1721;51.238;9.562;2023-07-24T11:57:43;7.53;;;2.80;;
3415;SDS011;1721;51.238;9.562;2023-07-24T12:00:21;8.20;;;3.23;;
3415;SDS011;1721;51.238;9.562;2023-07-24T12:02:47;9.97;;;3.33;;
3415;SDS011;1721;51.238;9.562;2023-07-24T12:05:13;9.93;;;3.20;;
3415;SDS011;1721;51.238;9.562;2023-07-24T12:07:39;9.70;;;3.70;;
3415;SDS011;1721;51.238;9.562;2023-07-24T12:10:07;6.40;;;2.77;;
3415;SDS011;1721;51.238;9.562;2023-07-24T12:12:45;6.93;;;2.90;;
3415;SDS011;1721;51.238;9.562;2023-07-24T12:15:12;11.53;;;2.90;;
3415;SDS011;1721;51.238;9.562;2023-07-24T12:17:39;11.47;;;3.33;;
3415;SDS011;1721;51.238;9.562;2023-07-24T12:20:05;7.80;;;2.50;;
3415;SDS011;1721;51.238;9.562;2023-07-24T12:22:33;8.50;;;3.53;;
3415;SDS011;1721;51.238;9.562;2023-07-24T12:24:59;7.40;;;2.90;;
3415;SDS011;1721;51.238;9.562;2023-07-24T12:27:25;8.70;;;3.43;;
3415;SDS011;1721;51.238;9.562;2023-07-24T12:29:51;9.03;;;3.50;;
3415;SDS011;1721;51.238;9.562;2023-07-24T12:32:17;8.47;;;2.97;;
3415;SDS011;1721;51.238;9.562;2023-07-24T12:34:43;7.27;;;3.00;;
3415;SDS011;1721;51.238;9.562;2023-07-24T12:37:11;8.90;;;3.60;;
3415;SDS011;1721;51.238;9.562;2023-07-24T12:39:37;9.57;;;3.60;;
3415;SDS011;1721;51.238;9.562;2023-07-24T12:42:02;8.60;;;3.70;;
3415;SDS011;1721;51.238;9.562;2023-07-24T12:44:29;9.47;;;3.50;;
3415;SDS011;1721;51.238;9.562;2023-07-24T12:46:55;12.57;;;4.07;;
3415;SDS011;1721;51.238;9.562;2023-07-24T12:49:20;7.20;;;3.10;;
3415;SDS011;1721;51.238;9.562;2023-07-24T12:51:46;8.17;;;3.80;;
3415;SDS011;1721;51.238;9.562;2023-07-24T12:54:11;8.63;;;3.53;;
3415;SDS011;1721;51.238;9.562;2023-07-24T12:56:37;8.63;;;3.33;;
3415;SDS011;1721;51.238;9.562;2023-07-24T12:59:02;8.43;;;3.40;;
3415;SDS011;1721;51.238;9.562;2023-07-24T13:01:28;9.70;;;3.73;;
3415;SDS011;1721;51.238;9.562;2023-07-24T13:03:54;7.77;;;3.13;;
3415;SDS011;1721;51.238;9.562;2023-07-24T13:06:20;8.63;;;3.50;;
3415;SDS011;1721;51.238;9.562;2023-07-24T13:08:46;8.13;;;3.40;;
3415;SDS011;1721;51.238;9.562;2023-07-24T13:11:11;10.97;;;3.87;;
3415;SDS011;1721;51.238;9.562;2023-07-24T13:13:37;8.23;;;3.17;;
3415;SDS011;1721;51.238;9.562;2023-07-24T13:16:02;9.60;;;3.30;;
3415;SDS011;1721;51.238;9.562;2023-07-24T13:18:29;8.50;;;3.70;;
3415;SDS011;1721;51.238;9.562;2023-07-24T13:20:55;8.70;;;3.67;;
3415;SDS011;1721;51.238;9.562;2023-07-24T13:23:21;8.20;;;3.77;;
3415;SDS011;1721;51.238;9.562;2023-07-24T13:25:46;7.10;;;3.30;;
3415;SDS011;1721;51.238;9.562;2023-07-24T13:28:12;10.00;;;4.43;;
3415;SDS011;1721;51.238;9.562;2023-07-24T13:30:38;10.93;;;3.40;;
3415;SDS011;1721;51.238;9.562;2023-07-24T13:33:03;9.80;;;3.57;;
3415;SDS011;1721;51.238;9.562;2023-07-24T13:35:29;9.37;;;3.43;;
3415;SDS011;1721;51.238;9.562;2023-07-24T13:37:54;8.80;;;3.23;;
3415;SDS011;1721;51.238;9.562;2023-07-24T13:40:20;9.10;;;3.20;;
3415;SDS011;1721;51.238;9.562;2023-07-24T13:42:45;10.23;;;3.07;;
3415;SDS011;1721;51.238;9.562;2023-07-24T13:45:11;9.47;;;3.30;;
3415;SDS011;1721;51.238;9.562;2023-07-24T13:47:36;7.87;;;2.87;;
3415;SDS011;1721;51.238;9.562;2023-07-24T13:50:02;7.57;;;3.00;;
3415;SDS011;1721;51.238;9.562;2023-07-24T13:52:29;8.30;;;2.50;;
3415;SDS011;1721;51.238;9.562;2023-07-24T13:54:54;7.53;;;3.00;;
3415;SDS011;1721;51.238;9.562;2023-07-24T13:57:20;7.80;;;3.10;;
3415;SDS011;1721;51.238;9.562;2023-07-24T13:59:46;6.60;;;2.50;;
3415;SDS011;1721;51.238;9.562;2023-07-24T14:02:12;7.60;;;3.20;;
3415;SDS011;1721;51.238;9.562;2023-07-24T14:04:38;10.60;;;3.10;;
3415;SDS011;1721;51.238;9.562;2023-07-24T14:07:03;8.23;;;3.07;;
3415;SDS011;1721;51.238;9.562;2023-07-24T14:09:29;6.40;;;2.63;;
3415;SDS011;1721;51.238;9.562;2023-07-24T14:11:56;6.30;;;2.50;;
3415;SDS011;1721;51.238;9.562;2023-07-24T14:14:22;8.37;;;3.03;;
3415;SDS011;1721;51.238;9.562;2023-07-24T14:16:48;6.67;;;2.70;;
3415;SDS011;1721;51.238;9.562;2023-07-24T14:19:14;9.00;;;3.17;;
3415;SDS011;1721;51.238;9.562;2023-07-24T14:21:40;6.63;;;3.03;;
3415;SDS011;1721;51.238;9.562;2023-07-24T14:24:06;7.80;;;2.93;;
3415;SDS011;1721;51.238;9.562;2023-07-24T14:26:31;11.50;;;2.93;;
3415;SDS011;1721;51.238;9.562;2023-07-24T14:28:57;9.30;;;3.20;;
3415;SDS011;1721;51.238;9.562;2023-07-24T14:31:23;9.87;;;3.77;;
3415;SDS011;1721;51.238;9.562;2023-07-24T14:33:49;16.07;;;3.07;;
3415;SDS011;1721;51.238;9.562;2023-07-24T14:36:15;15.93;;;4.77;;
3415;SDS011;1721;51.238;9.562;2023-07-24T14:38:40;11.33;;;4.30;;
3415;SDS011;1721;51.238;9.562;2023-07-24T14:41:06;11.33;;;4.00;;
3415;SDS011;1721;51.238;9.562;2023-07-24T14:43:31;10.07;;;3.60;;
3415;SDS011;1721;51.238;9.562;2023-07-24T14:45:57;9.63;;;3.50;;
3415;SDS011;1721;51.238;9.562;2023-07-24T14:48:22;10.43;;;3.63;;
3415;SDS011;1721;51.238;9.562;2023-07-24T14:50:48;6.80;;;2.30;;
3415;SDS011;1721;51.238;9.562;2023-07-24T14:53:14;8.90;;;1.50;;
3415;SDS011;1721;51.238;9.562;2023-07-24T14:55:39;4.57;;;1.30;;
3415;SDS011;1721;51.238;9.562;2023-07-24T14:58:05;6.87;;;1.40;;
3415;SDS011;1721;51.238;9.562;2023-07-24T15:00:32;5.10;;;1.57;;
3415;SDS011;1721;51.238;9.562;2023-07-24T15:02:57;5.37;;;1.60;;
3415;SDS011;1721;51.238;9.562;2023-07-24T15:05:23;7.57;;;1.27;;
3415;SDS011;1721;51.238;9.562;2023-07-24T15:07:48;4.57;;;1.07;;
3415;SDS011;1721;51.238;9.562;2023-07-24T15:10:14;4.03;;;1.33;;
3415;SDS011;1721;51.238;9.562;2023-07-24T15:12:39;4.53;;;1.27;;
3415;SDS011;1721;51.238;9.562;2023-07-24T15:15:05;5.97;;;1.60;;
3415;SDS011;1721;51.238;9.562;2023-07-24T15:17:31;7.50;;;1.53;;